Time;durP1;ratioP1;P1;durP2;ratioP2;P2;SDS_P1;SDS_P2;PMS_P1;PMS_P2;Temp;Humidity;BMP_temperature;BMP_pressure;BME280_temperature;BME280_humidity;BME280_pressure;Samples;Min_cycle;Max_cycle;Signal;HPM_P1;HPM_P2
2022/02/08 00:01:15;;;;;;;37.80;9.70;;;;;;;;;;4841470;29;20058;-83
2022/02/08 00:03:42;;;;;;;40.90;10.77;;;;;;;;;;4841896;29;20050;-81
2022/02/08 00:08:47;;;;;;;48.42;11.40;;;;;;;;;;4842579;29;20121;-82
2022/02/08 00:11:13;;;;;;;41.78;13.05;;;;;;;;;;4827100;29;20136;-80
2022/02/08 00:13:39;;;;;;;50.05;12.55;;;;;;;;;;4840206;29;20053;-81
2022/02/08 00:16:05;;;;;;;55.30;16.23;;;;;;;;;;4840412;29;20106;-82
2022/02/08 00:18:31;;;;;;;46.05;13.48;;;;;;;;;;4857975;29;20114;-83
2022/02/08 00:20:58;;;;;;;49.67;12.13;;;;;;;;;;4839984;29;20053;-82
2022/02/08 00:23:24;;;;;;;46.88;12.52;;;;;;;;;;4840030;29;20085;-81
2022/02/08 00:25:50;;;;;;;37.78;12.68;;;;;;;;;;4841363;29;20121;-81
2022/02/08 00:28:17;;;;;;;49.58;11.98;;;;;;;;;;4826009;29;20137;-81
2022/02/08 00:30:43;;;;;;;47.85;12.75;;;;;;;;;;4839503;29;20394;-81
2022/02/08 00:33:09;;;;;;;51.15;12.23;;;;;;;;;;4856637;29;20072;-82
2022/02/08 00:35:35;;;;;;;46.85;13.95;;;;;;;;;;4840499;29;20465;-81
2022/02/08 00:38:01;;;;;;;48.47;13.38;;;;;;;;;;4841226;29;20936;-81
2022/02/08 00:40:27;;;;;;;54.40;12.85;;;;;;;;;;4840762;29;20251;-82
2022/02/08 00:42:54;;;;;;;58.85;13.30;;;;;;;;;;4839355;29;20124;-82
2022/02/08 00:45:44;;;;;;;59.42;12.43;;;;;;;;;;4841408;29;20057;-82
2022/02/08 00:48:18;;;;;;;67.00;13.73;;;;;;;;;;4840998;29;20049;-81
2022/02/08 00:50:49;;;;;;;61.60;14.57;;;;;;;;;;4840094;29;20405;-82
2022/02/08 00:53:16;;;;;;;64.88;14.77;;;;;;;;;;4842284;29;20050;-82
2022/02/08 00:55:43;;;;;;;63.08;16.58;;;;;;;;;;4838738;29;20088;-82
2022/02/08 00:58:09;;;;;;;62.72;16.08;;;;;;;;;;4838889;29;20569;-81
2022/02/08 01:00:35;;;;;;;66.05;15.50;;;;;;;;;;4841620;29;20041;-81
2022/02/08 01:03:06;;;;;;;59.88;16.55;;;;;;;;;;4824354;29;20448;-81
2022/02/08 01:05:32;;;;;;;60.90;16.55;;;;;;;;;;4840274;29;20141;-82
2022/02/08 01:07:58;;;;;;;60.40;16.60;;;;;;;;;;4842060;29;20072;-82
2022/02/08 01:10:29;;;;;;;62.17;18.40;;;;;;;;;;4825355;29;20053;-81
2022/02/08 01:12:55;;;;;;;65.55;18.23;;;;;;;;;;4838693;29;20052;-84
2022/02/08 01:15:21;;;;;;;66.30;21.00;;;;;;;;;;4839926;29;20065;-82
2022/02/08 01:17:55;;;;;;;55.17;18.83;;;;;;;;;;4840573;29;20049;-81
2022/02/08 01:20:29;;;;;;;49.38;17.90;;;;;;;;;;4840194;29;20049;-82
2022/02/08 01:22:55;;;;;;;49.38;15.82;;;;;;;;;;4824252;29;20136;-81
2022/02/08 01:25:28;;;;;;;47.38;16.90;;;;;;;;;;4840366;29;20172;-82
2022/02/08 01:27:59;;;;;;;58.25;18.13;;;;;;;;;;4823336;29;20054;-82
2022/02/08 01:30:31;;;;;;;50.25;17.73;;;;;;;;;;4840423;29;20049;-81
2022/02/08 01:38:17;;;;;;;58.40;20.48;;;;;;;;;;4844129;29;20396;-82
2022/02/08 01:44:04;;;;;;;51.67;18.98;;;;;;;;;;4839006;29;20045;-81
2022/02/08 01:51:45;;;;;;;59.88;21.45;;;;;;;;;;4839582;29;20062;-82
2022/02/08 01:54:11;;;;;;;47.53;20.80;;;;;;;;;;4838087;29;20096;-82
2022/02/08 01:56:37;;;;;;;61.78;21.55;;;;;;;;;;4840042;29;20045;-82
2022/02/08 01:59:03;;;;;;;49.75;21.55;;;;;;;;;;4837992;29;20056;-81
2022/02/08 02:01:29;;;;;;;68.63;22.50;;;;;;;;;;4840284;29;20073;-82
2022/02/08 02:03:55;;;;;;;62.95;22.08;;;;;;;;;;4823861;29;20057;-82
2022/02/08 02:06:22;;;;;;;63.42;23.23;;;;;;;;;;4839792;29;20097;-83
2022/02/08 02:08:48;;;;;;;64.28;24.08;;;;;;;;;;4839129;29;20046;-82
2022/02/08 02:11:14;;;;;;;59.03;23.92;;;;;;;;;;4824116;29;20053;-83
2022/02/08 02:13:46;;;;;;;63.00;22.60;;;;;;;;;;4822754;29;20486;-82
2022/02/08 02:16:18;;;;;;;64.47;23.60;;;;;;;;;;4839201;29;20121;-82
2022/02/08 02:18:44;;;;;;;82.35;25.17;;;;;;;;;;4823966;29;20417;-82
2022/02/08 02:21:10;;;;;;;68.45;25.45;;;;;;;;;;4837527;29;20470;-82
2022/02/08 02:23:36;;;;;;;79.15;24.02;;;;;;;;;;4849806;29;20497;-82
2022/02/08 02:26:03;;;;;;;62.65;25.35;;;;;;;;;;4824165;29;20046;-82
2022/02/08 02:28:30;;;;;;;79.43;25.60;;;;;;;;;;4826619;29;20057;-81
2022/02/08 02:30:57;;;;;;;79.68;25.00;;;;;;;;;;4824430;29;20050;-82
2022/02/08 02:33:23;;;;;;;88.50;25.48;;;;;;;;;;4839223;29;20140;-82
2022/02/08 02:35:49;;;;;;;73.63;23.67;;;;;;;;;;4838495;29;20133;-82
2022/02/08 02:38:15;;;;;;;93.78;24.30;;;;;;;;;;4837886;29;20050;-82
2022/02/08 02:40:44;;;;;;;72.80;23.30;;;;;;;;;;4837594;29;20136;-82
2022/02/08 02:43:10;;;;;;;69.05;21.20;;;;;;;;;;4837464;29;20049;-82
2022/02/08 02:45:36;;;;;;;72.90;19.42;;;;;;;;;;4839362;29;20057;-82
2022/02/08 02:48:03;;;;;;;69.28;20.55;;;;;;;;;;4836594;29;20041;-82
2022/02/08 02:50:29;;;;;;;68.90;19.60;;;;;;;;;;4825231;29;20477;-81
2022/02/08 02:52:56;;;;;;;70.95;20.02;;;;;;;;;;4826252;29;20069;-82
2022/02/08 02:55:22;;;;;;;69.32;19.60;;;;;;;;;;4837763;29;20077;-82
2022/02/08 02:57:51;;;;;;;67.20;20.10;;;;;;;;;;4839216;29;20114;-83
2022/02/08 03:03:14;;;;;;;57.28;17.17;;;;;;;;;;4838580;29;20125;-82
2022/02/08 03:06:08;;;;;;;57.58;17.02;;;;;;;;;;4825611;29;20049;-82
2022/02/08 03:19:32;;;;;;;60.95;16.30;;;;;;;;;;4841168;29;20060;-82
2022/02/08 03:21:58;;;;;;;59.88;16.10;;;;;;;;;;4826657;29;20374;-81
2022/02/08 03:24:24;;;;;;;48.65;13.70;;;;;;;;;;4841246;29;20069;-82
2022/02/08 03:26:50;;;;;;;45.10;15.07;;;;;;;;;;4842018;29;20536;-81
2022/02/08 03:29:16;;;;;;;50.33;14.80;;;;;;;;;;4857361;29;20398;-83
2022/02/08 03:31:42;;;;;;;50.97;14.05;;;;;;;;;;4843021;29;20046;-83
2022/02/08 03:34:10;;;;;;;62.40;15.95;;;;;;;;;;4856141;29;20136;-83
2022/02/08 03:36:36;;;;;;;47.85;13.02;;;;;;;;;;4872541;29;20061;-84
2022/02/08 03:39:30;;;;;;;56.33;14.90;;;;;;;;;;4827063;29;20193;-83
2022/02/08 03:41:55;;;;;;;45.80;13.27;;;;;;;;;;4840954;29;20140;-83
2022/02/08 03:44:30;;;;;;;44.75;12.27;;;;;;;;;;4825282;29;20053;-84
2022/02/08 03:46:56;;;;;;;47.67;12.93;;;;;;;;;;4841889;29;20371;-83
2022/02/08 03:49:22;;;;;;;42.05;11.75;;;;;;;;;;4824013;29;20125;-84
2022/02/08 03:51:51;;;;;;;44.05;13.07;;;;;;;;;;4826144;29;20148;-83
2022/02/08 03:54:18;;;;;;;48.25;11.70;;;;;;;;;;4856783;29;20049;-84
2022/02/08 03:56:44;;;;;;;45.85;11.82;;;;;;;;;;4842074;29;20141;-83
2022/02/08 03:59:12;;;;;;;53.08;13.65;;;;;;;;;;4856819;29;20053;-83
2022/02/08 04:06:44;;;;;;;45.10;12.13;;;;;;;;;;4843989;29;20056;-84
2022/02/08 04:09:10;;;;;;;47.67;13.35;;;;;;;;;;4842005;29;20061;-83
2022/02/08 04:11:49;;;;;;;38.58;11.82;;;;;;;;;;4842805;29;20084;-83
2022/02/08 04:14:37;;;;;;;38.53;12.07;;;;;;;;;;4847297;29;20062;-84
2022/02/08 04:17:36;;;;;;;29.45;10.48;;;;;;;;;;4840767;29;20100;-83
2022/02/08 04:41:43;;;;;;;33.13;8.13;;;;;;;;;;4838820;29;20053;-84
2022/02/08 04:44:23;;;;;;;33.50;7.20;;;;;;;;;;4842105;29;20057;-83
2022/02/08 04:49:15;;;;;;;31.27;6.80;;;;;;;;;;4839347;29;20061;-83
2022/02/08 04:51:49;;;;;;;32.40;8.13;;;;;;;;;;4824816;29;20057;-83
2022/02/08 04:54:42;;;;;;;32.90;7.03;;;;;;;;;;4857105;29;20149;-83
2022/02/08 04:57:20;;;;;;;24.83;5.60;;;;;;;;;;4837338;29;20132;-83
2022/02/08 05:45:10;;;;;;;21.92;4.07;;;;;;;;;;4839273;29;20385;-83
2022/02/08 05:47:43;;;;;;;18.73;4.00;;;;;;;;;;4843680;29;20132;-83
2022/02/08 05:50:24;;;;;;;24.15;4.43;;;;;;;;;;4840133;29;20385;-83
2022/02/08 05:53:03;;;;;;;21.73;4.07;;;;;;;;;;4830044;29;20506;-81
2022/02/08 05:55:31;;;;;;;26.25;4.13;;;;;;;;;;4825479;29;20049;-83
2022/02/08 05:57:57;;;;;;;17.67;3.78;;;;;;;;;;4840960;29;20230;-83
2022/02/08 06:00:27;;;;;;;17.35;4.75;;;;;;;;;;4826444;29;20045;-79
2022/02/08 06:02:55;;;;;;;24.35;3.90;;;;;;;;;;4857187;29;20049;-85
2022/02/08 06:05:22;;;;;;;12.30;3.67;;;;;;;;;;4829734;29;20053;-83
2022/02/08 06:07:48;;;;;;;22.25;4.00;;;;;;;;;;4858468;29;20046;-84
2022/02/08 06:10:14;;;;;;;19.25;3.42;;;;;;;;;;4829715;29;20077;-84
2022/02/08 06:12:44;;;;;;;19.50;3.47;;;;;;;;;;4826977;29;20047;-84
2022/02/08 06:15:13;;;;;;;20.67;4.07;;;;;;;;;;4842677;29;20045;-84
2022/02/08 06:17:39;;;;;;;19.52;3.20;;;;;;;;;;4846165;29;20505;-84
2022/02/08 06:20:06;;;;;;;18.27;3.42;;;;;;;;;;4843813;29;20434;-83
2022/02/08 06:22:33;;;;;;;16.77;3.25;;;;;;;;;;4846589;29;20159;-84
2022/02/08 06:24:59;;;;;;;22.55;3.38;;;;;;;;;;4830689;29;20054;-82
2022/02/08 06:27:31;;;;;;;16.50;3.10;;;;;;;;;;4844084;29;20343;-83
2022/02/08 06:29:58;;;;;;;15.30;3.30;;;;;;;;;;4848853;29;20148;-83
2022/02/08 06:32:26;;;;;;;17.73;3.35;;;;;;;;;;4840438;29;20082;-83
2022/02/08 06:34:54;;;;;;;19.20;3.35;;;;;;;;;;4845214;29;20054;-83
2022/02/08 06:37:22;;;;;;;17.08;3.20;;;;;;;;;;4834956;29;20053;-82
2022/02/08 06:39:48;;;;;;;21.20;3.53;;;;;;;;;;4846651;29;20208;-83
2022/02/08 06:42:14;;;;;;;16.83;3.42;;;;;;;;;;4828755;29;20080;-87
2022/02/08 06:44:40;;;;;;;22.92;3.55;;;;;;;;;;4850788;29;20049;-84
2022/02/08 06:47:06;;;;;;;19.25;3.38;;;;;;;;;;4844377;29;20057;-83
2022/02/08 06:49:33;;;;;;;14.57;3.60;;;;;;;;;;4840167;29;20142;-84
2022/02/08 06:51:59;;;;;;;20.85;3.08;;;;;;;;;;4827693;29;20045;-83
2022/02/08 06:54:25;;;;;;;22.95;4.43;;;;;;;;;;4859454;29;21825;-83
2022/02/08 06:56:51;;;;;;;16.30;3.28;;;;;;;;;;4843062;29;20099;-84
2022/02/08 06:59:19;;;;;;;22.02;3.80;;;;;;;;;;4833262;29;20045;-83
2022/02/08 07:01:46;;;;;;;19.58;3.63;;;;;;;;;;4845093;29;20049;-83
2022/02/08 07:04:14;;;;;;;17.13;2.72;;;;;;;;;;4827832;29;20060;-83
2022/02/08 07:06:47;;;;;;;23.23;5.03;;;;;;;;;;4855936;29;20105;-85
2022/02/08 07:09:13;;;;;;;15.10;3.28;;;;;;;;;;4833468;29;20050;-84
2022/02/08 07:11:40;;;;;;;16.77;3.50;;;;;;;;;;4840738;29;20378;-83
2022/02/08 07:14:06;;;;;;;17.67;3.60;;;;;;;;;;4828693;29;20049;-83
2022/02/08 07:16:33;;;;;;;14.88;2.75;;;;;;;;;;4842824;29;20064;-83
2022/02/08 07:19:00;;;;;;;19.73;3.50;;;;;;;;;;4827392;29;20060;-83
2022/02/08 07:21:26;;;;;;;17.23;3.13;;;;;;;;;;4847080;29;20050;-83
2022/02/08 07:23:52;;;;;;;16.73;2.88;;;;;;;;;;4841173;29;20053;-83
2022/02/08 07:26:18;;;;;;;18.20;4.03;;;;;;;;;;4846124;29;20045;-84
2022/02/08 07:28:45;;;;;;;14.52;2.78;;;;;;;;;;4812283;29;20069;-83
2022/02/08 07:31:19;;;;;;;18.20;2.80;;;;;;;;;;4825885;29;20069;-83
2022/02/08 07:33:59;;;;;;;17.25;2.67;;;;;;;;;;4838315;29;20048;-82
2022/02/08 07:42:09;;;;;;;19.15;2.65;;;;;;;;;;4831809;29;20057;-83
2022/02/08 07:44:35;;;;;;;13.95;2.85;;;;;;;;;;4832574;29;20108;-84
2022/02/08 07:47:01;;;;;;;20.88;2.45;;;;;;;;;;4850357;29;20541;-84
2022/02/08 07:49:27;;;;;;;16.63;3.13;;;;;;;;;;4832331;29;20060;-84
2022/02/08 07:51:54;;;;;;;19.30;3.08;;;;;;;;;;4831683;29;20046;-83
2022/02/08 07:54:20;;;;;;;22.73;3.33;;;;;;;;;;4831665;29;20053;-83
2022/02/08 07:56:46;;;;;;;20.20;3.80;;;;;;;;;;4831337;29;20137;-82
2022/02/08 07:59:12;;;;;;;16.08;2.60;;;;;;;;;;4835609;29;20924;-80
2022/02/08 08:01:38;;;;;;;19.50;4.05;;;;;;;;;;4864771;29;20052;-82
2022/02/08 08:04:04;;;;;;;18.00;2.42;;;;;;;;;;4841109;29;20057;-83
2022/02/08 08:06:31;;;;;;;13.25;2.85;;;;;;;;;;4838724;29;20056;-84
2022/02/08 08:08:58;;;;;;;15.48;2.50;;;;;;;;;;4839966;29;20058;-83
2022/02/08 08:11:24;;;;;;;18.75;3.65;;;;;;;;;;4839883;29;20164;-83
2022/02/08 08:14:00;;;;;;;20.55;3.15;;;;;;;;;;4843245;29;20606;-82
2022/02/08 08:19:00;;;;;;;14.07;3.05;;;;;;;;;;4843229;29;20579;-82
2022/02/08 08:21:26;;;;;;;21.23;3.72;;;;;;;;;;4827478;29;20049;-83
2022/02/08 08:23:53;;;;;;;16.60;2.83;;;;;;;;;;4844755;29;20097;-86
2022/02/08 08:26:19;;;;;;;18.30;2.63;;;;;;;;;;4830247;29;20068;-83
2022/02/08 08:28:45;;;;;;;17.35;2.97;;;;;;;;;;4841211;29;20056;-82
2022/02/08 08:31:12;;;;;;;15.00;2.42;;;;;;;;;;4844867;29;20049;-83
2022/02/08 08:33:38;;;;;;;15.85;2.50;;;;;;;;;;4837777;29;20069;-83
2022/02/08 08:36:04;;;;;;;19.80;2.90;;;;;;;;;;4844426;29;20045;-80
2022/02/08 08:38:32;;;;;;;14.63;3.10;;;;;;;;;;4835435;29;20088;-82
2022/02/08 08:41:08;;;;;;;14.20;2.80;;;;;;;;;;4826014;29;20168;-82
2022/02/08 08:44:04;;;;;;;21.88;3.63;;;;;;;;;;4829204;29;20066;-82
2022/02/08 08:51:53;;;;;;;15.73;2.97;;;;;;;;;;4826903;29;20614;-85
2022/02/08 08:54:19;;;;;;;22.10;2.75;;;;;;;;;;4829846;29;20495;-88
2022/02/08 08:56:46;;;;;;;19.83;3.30;;;;;;;;;;4856390;29;20061;-86
2022/02/08 08:59:13;;;;;;;17.30;2.95;;;;;;;;;;4842117;29;20064;-90
2022/02/08 09:01:39;;;;;;;16.58;2.83;;;;;;;;;;4840807;29;20049;-82
2022/02/08 09:04:06;;;;;;;12.40;3.05;;;;;;;;;;4845711;29;20110;-90
2022/02/08 09:06:34;;;;;;;15.05;3.03;;;;;;;;;;4856198;29;20218;-87
2022/02/08 09:09:00;;;;;;;15.05;3.65;;;;;;;;;;4842424;29;20049;-90
2022/02/08 09:14:03;;;;;;;14.55;2.78;;;;;;;;;;4846767;29;20048;-85
2022/02/08 09:16:36;;;;;;;16.98;3.92;;;;;;;;;;4834886;29;20137;-89
2022/02/08 09:22:00;;;;;;;18.95;2.92;;;;;;;;;;4848193;29;20077;-88
2022/02/08 09:29:49;;;;;;;16.70;2.83;;;;;;;;;;4839648;29;20197;-88
2022/02/08 09:32:32;;;;;;;20.13;3.10;;;;;;;;;;4842699;29;20060;-86
2022/02/08 09:34:59;;;;;;;24.17;3.45;;;;;;;;;;4853602;29;20042;-86
2022/02/08 09:37:25;;;;;;;17.52;2.80;;;;;;;;;;4840332;29;20053;-84
2022/02/08 09:39:52;;;;;;;16.42;2.90;;;;;;;;;;4848502;29;20049;-84
2022/02/08 09:42:18;;;;;;;19.63;3.38;;;;;;;;;;4835159;29;20042;-84
2022/02/08 09:44:44;;;;;;;15.65;2.78;;;;;;;;;;4836440;29;20055;-82
2022/02/08 09:47:15;;;;;;;14.38;3.03;;;;;;;;;;4839672;29;20052;-87
2022/02/08 09:49:50;;;;;;;17.88;2.75;;;;;;;;;;4840357;29;20112;-84
2022/02/08 09:52:19;;;;;;;17.67;2.72;;;;;;;;;;4872352;29;20496;-86
2022/02/08 09:54:46;;;;;;;18.17;2.58;;;;;;;;;;4840417;29;20174;-80
2022/02/08 09:57:13;;;;;;;15.95;2.55;;;;;;;;;;4840755;29;20136;-84
2022/02/08 09:59:39;;;;;;;17.00;3.35;;;;;;;;;;4841236;29;20057;-85
2022/02/08 10:02:05;;;;;;;16.83;2.80;;;;;;;;;;4840172;29;20049;-85
2022/02/08 10:04:31;;;;;;;18.67;3.63;;;;;;;;;;4824505;29;20129;-82
2022/02/08 10:07:09;;;;;;;15.82;3.13;;;;;;;;;;4824625;29;20053;-86
2022/02/08 10:09:35;;;;;;;22.92;3.60;;;;;;;;;;4856406;29;20305;-87
2022/02/08 10:12:01;;;;;;;16.90;2.88;;;;;;;;;;4843659;29;20078;-88
2022/02/08 10:22:31;;;;;;;16.50;3.72;;;;;;;;;;4857839;29;20060;-85
2022/02/08 10:25:00;;;;;;;22.95;3.75;;;;;;;;;;4851214;29;20068;-85
2022/02/08 10:27:30;;;;;;;15.10;2.95;;;;;;;;;;4848806;29;20128;-85
2022/02/08 10:30:13;;;;;;;16.27;3.50;;;;;;;;;;4831293;29;20682;-85
2022/02/08 10:38:16;;;;;;;16.27;3.50;;;;;;;;;;4846039;29;20057;-85
2022/02/08 10:40:43;;;;;;;21.13;4.38;;;;;;;;;;4834883;29;20081;-85
2022/02/08 10:43:15;;;;;;;19.95;2.80;;;;;;;;;;4825831;29;20442;-87
2022/02/08 10:45:41;;;;;;;21.08;4.55;;;;;;;;;;4856479;29;20072;-81
2022/02/08 10:48:09;;;;;;;19.48;2.63;;;;;;;;;;4829168;29;20060;-81
2022/02/08 10:50:37;;;;;;;20.33;3.28;;;;;;;;;;4846308;29;20144;-80
2022/02/08 10:53:06;;;;;;;19.70;2.85;;;;;;;;;;4841632;29;20076;-80
2022/02/08 10:58:30;;;;;;;19.73;3.78;;;;;;;;;;4838269;29;20393;-82
2022/02/08 11:03:33;;;;;;;13.60;2.67;;;;;;;;;;4839970;29;20552;-82
2022/02/08 11:06:14;;;;;;;20.38;3.20;;;;;;;;;;4824038;29;20083;-83
2022/02/08 11:09:27;;;;;;;16.05;2.67;;;;;;;;;;4841850;29;20049;-81
2022/02/08 11:17:39;;;;;;;13.95;2.42;;;;;;;;;;4844982;29;20066;-82
2022/02/08 11:22:46;;;;;;;14.48;2.92;;;;;;;;;;4843698;29;20092;-80
2022/02/08 11:25:27;;;;;;;14.82;3.00;;;;;;;;;;4846480;29;20144;-82
2022/02/08 11:28:04;;;;;;;14.55;2.42;;;;;;;;;;4830826;29;20118;-85
2022/02/08 11:30:43;;;;;;;17.95;2.47;;;;;;;;;;4858022;29;20065;-79
2022/02/08 11:42:40;;;;;;;19.85;3.08;;;;;;;;;;4842046;29;20059;-78
2022/02/08 11:50:44;;;;;;;17.80;2.80;;;;;;;;;;4836025;29;20493;-83
2022/02/08 11:56:41;;;;;;;15.32;2.65;;;;;;;;;;4849268;29;20053;-83
2022/02/08 11:58:53;;;;;;;14.32;2.97;;;;;;;;;;4843641;29;20105;-85
2022/02/08 12:01:28;;;;;;;22.10;3.00;;;;;;;;;;4843450;29;20053;-89
2022/02/08 12:04:13;;;;;;;19.60;3.38;;;;;;;;;;4830935;29;20073;-84
2022/02/08 12:09:20;;;;;;;17.25;3.00;;;;;;;;;;4844198;29;20045;-87
2022/02/08 12:31:44;;;;;;;12.35;2.60;;;;;;;;;;4815033;29;20088;-86
2022/02/08 12:34:19;;;;;;;17.48;3.70;;;;;;;;;;4843291;29;20060;-85
2022/02/08 12:59:21;;;;;;;17.60;2.47;;;;;;;;;;4869132;29;20201;-81
2022/02/08 14:07:58;;;;;;;14.73;2.42;;;;;;;;;;4813707;29;20543;-84
2022/02/08 14:21:19;;;;;;;14.02;2.30;;;;;;;;;;4830579;29;20494;-83
2022/02/08 15:09:31;;;;;;;15.00;2.83;;;;;;;;;;4821313;29;20426;-83
2022/02/08 15:14:28;;;;;;;14.57;2.83;;;;;;;;;;4854427;29;20061;-81
2022/02/08 15:16:54;;;;;;;15.85;2.65;;;;;;;;;;4823612;29;20042;-78
2022/02/08 15:19:20;;;;;;;15.27;3.28;;;;;;;;;;4830163;29;20038;-81
2022/02/08 15:21:46;;;;;;;16.27;2.55;;;;;;;;;;4830108;29;20050;-81
2022/02/08 15:24:14;;;;;;;17.23;3.13;;;;;;;;;;4826352;29;20114;-84
2022/02/08 15:26:47;;;;;;;7.95;1.77;;;;;;;;;;4805595;29;20112;-83
2022/02/08 15:29:15;;;;;;;15.38;2.83;;;;;;;;;;4787748;29;20047;-89
2022/02/08 15:31:41;;;;;;;17.60;3.42;;;;;;;;;;4768197;29;20038;-79
2022/02/08 15:34:07;;;;;;;15.02;2.30;;;;;;;;;;4789588;29;20048;-80
2022/02/08 15:36:33;;;;;;;20.10;3.08;;;;;;;;;;4792277;29;20648;-81
2022/02/08 15:39:07;;;;;;;16.48;2.13;;;;;;;;;;4802814;29;20599;-83
2022/02/08 15:41:37;;;;;;;15.80;2.50;;;;;;;;;;4808056;29;20253;-82
2022/02/08 15:44:04;;;;;;;15.00;2.72;;;;;;;;;;4814189;29;20057;-83
2022/02/08 15:46:33;;;;;;;15.38;2.63;;;;;;;;;;4813609;29;20093;-82
2022/02/08 15:49:00;;;;;;;13.20;2.95;;;;;;;;;;4802524;29;20050;-81
2022/02/08 15:51:34;;;;;;;15.25;2.80;;;;;;;;;;4814567;29;20054;-83
2022/02/08 15:54:26;;;;;;;16.38;2.42;;;;;;;;;;4821370;29;20053;-84
2022/02/08 16:05:23;;;;;;;22.30;3.05;;;;;;;;;;4801972;29;20137;-86
2022/02/08 16:08:01;;;;;;;12.25;2.72;;;;;;;;;;4795113;29;20055;-84
2022/02/08 16:10:47;;;;;;;11.18;2.90;;;;;;;;;;4797901;29;20066;-84
2022/02/08 16:13:35;;;;;;;16.90;2.50;;;;;;;;;;4787754;29;20065;-84
2022/02/08 16:24:07;;;;;;;14.10;2.78;;;;;;;;;;4800273;29;20583;-82
2022/02/08 16:29:49;;;;;;;20.45;2.58;;;;;;;;;;4813316;29;20057;-82
2022/02/08 16:32:31;;;;;;;16.60;3.22;;;;;;;;;;4815417;29;20141;-83
2022/02/08 16:53:48;;;;;;;19.13;4.03;;;;;;;;;;4811474;29;20439;-79
2022/02/08 16:56:21;;;;;;;20.27;3.55;;;;;;;;;;4791107;29;20060;-78
2022/02/08 16:58:53;;;;;;;16.38;3.53;;;;;;;;;;4813831;29;20053;-80
2022/02/08 17:01:24;;;;;;;18.48;3.15;;;;;;;;;;4816898;29;20056;-78
2022/02/08 17:03:51;;;;;;;20.67;3.83;;;;;;;;;;4808154;29;20084;-82
2022/02/08 17:06:27;;;;;;;17.95;2.72;;;;;;;;;;4804996;29;20050;-83
2022/02/08 17:09:06;;;;;;;22.58;3.45;;;;;;;;;;4799810;29;20077;-83
2022/02/08 17:11:56;;;;;;;23.60;3.92;;;;;;;;;;4805009;29;20049;-82
2022/02/08 17:49:38;;;;;;;22.05;4.18;;;;;;;;;;4829086;29;20136;-78
2022/02/08 17:52:04;;;;;;;23.05;3.38;;;;;;;;;;4806216;29;20056;-79
2022/02/08 17:54:31;;;;;;;14.63;2.97;;;;;;;;;;4806885;29;20050;-78
2022/02/08 17:56:57;;;;;;;20.77;2.90;;;;;;;;;;4810990;29;20062;-77
2022/02/08 17:59:26;;;;;;;25.80;4.05;;;;;;;;;;4814241;29;20054;-78
2022/02/08 18:01:53;;;;;;;23.88;3.53;;;;;;;;;;4808736;29;20742;-83
2022/02/08 18:04:19;;;;;;;24.30;3.80;;;;;;;;;;4797318;29;20049;-76
2022/02/08 18:06:45;;;;;;;22.52;4.15;;;;;;;;;;4843253;29;20050;-81
2022/02/08 18:09:13;;;;;;;20.45;3.45;;;;;;;;;;4792471;29;20058;-80
2022/02/08 18:11:41;;;;;;;14.27;2.85;;;;;;;;;;4817698;29;20057;-80
2022/02/08 18:14:09;;;;;;;24.55;3.67;;;;;;;;;;4799495;29;20057;-76
2022/02/08 18:16:36;;;;;;;17.02;3.40;;;;;;;;;;4828165;29;20190;-79
2022/02/08 18:19:10;;;;;;;25.38;3.97;;;;;;;;;;4814485;29;20062;-81
2022/02/08 18:21:44;;;;;;;19.42;3.53;;;;;;;;;;4808844;29;20065;-84
2022/02/08 18:24:47;;;;;;;20.05;3.90;;;;;;;;;;4810565;29;20046;-81
2022/02/08 18:27:37;;;;;;;21.17;3.60;;;;;;;;;;4811376;29;20054;-83
2022/02/08 19:08:08;;;;;;;23.33;3.47;;;;;;;;;;4811414;29;20065;-84
2022/02/08 19:16:13;;;;;;;28.40;4.53;;;;;;;;;;4819879;29;20064;-86
2022/02/08 19:23:50;;;;;;;21.35;4.55;;;;;;;;;;4791763;29;20343;-84
2022/02/08 19:26:17;;;;;;;20.38;5.03;;;;;;;;;;4803811;29;20074;-78
2022/02/08 19:28:46;;;;;;;22.67;4.32;;;;;;;;;;4781435;29;20063;-78
2022/02/08 19:31:12;;;;;;;27.85;4.22;;;;;;;;;;4790126;29;20075;-80
2022/02/08 19:33:39;;;;;;;25.70;8.05;;;;;;;;;;4801920;29;20058;-84
2022/02/08 19:36:05;;;;;;;18.63;4.72;;;;;;;;;;4790396;29;20101;-82
2022/02/08 19:38:37;;;;;;;16.25;4.40;;;;;;;;;;4787419;29;20538;-78
2022/02/08 19:41:04;;;;;;;20.30;4.40;;;;;;;;;;4799820;29;20439;-79
2022/02/08 19:43:30;;;;;;;18.83;4.00;;;;;;;;;;4810437;29;20496;-81
2022/02/08 19:45:56;;;;;;;21.77;4.55;;;;;;;;;;4791800;29;20417;-85
2022/02/08 19:48:22;;;;;;;31.33;4.47;;;;;;;;;;4802244;29;20131;-83
2022/02/08 19:50:49;;;;;;;17.40;4.65;;;;;;;;;;4803305;29;20132;-83
2022/02/08 19:53:15;;;;;;;15.82;3.95;;;;;;;;;;4803702;29;20143;-83
2022/02/08 19:58:21;;;;;;;20.25;4.53;;;;;;;;;;4823738;29;20438;-82
2022/02/08 20:00:58;;;;;;;17.23;4.13;;;;;;;;;;4825900;29;20058;-80
2022/02/08 20:03:31;;;;;;;25.33;4.88;;;;;;;;;;4788826;29;20541;-78
2022/02/08 20:05:57;;;;;;;20.10;4.38;;;;;;;;;;4804683;29;20153;-77
2022/02/08 20:08:26;;;;;;;20.75;4.47;;;;;;;;;;4788254;29;20138;-79
2022/02/08 20:10:53;;;;;;;13.52;4.25;;;;;;;;;;4836016;29;20121;-80
2022/02/08 20:13:23;;;;;;;21.25;4.28;;;;;;;;;;4821100;29;20141;-79
2022/02/08 20:15:49;;;;;;;16.80;4.07;;;;;;;;;;4788523;29;20050;-79
2022/02/08 20:18:17;;;;;;;24.55;5.25;;;;;;;;;;4791590;29;20402;-78
2022/02/08 20:20:43;;;;;;;23.13;5.25;;;;;;;;;;4799304;29;20050;-91
2022/02/08 20:23:09;;;;;;;24.60;4.68;;;;;;;;;;4803310;29;20058;-77
2022/02/08 20:25:43;;;;;;;26.48;5.50;;;;;;;;;;4803280;29;20158;-82
2022/02/08 20:28:14;;;;;;;27.98;5.72;;;;;;;;;;4815355;29;20379;-82
2022/02/08 20:30:41;;;;;;;26.50;5.40;;;;;;;;;;4812965;29;20109;-81
2022/02/08 20:33:07;;;;;;;30.83;5.82;;;;;;;;;;4797241;29;20057;-81
2022/02/08 20:35:33;;;;;;;19.10;4.03;;;;;;;;;;4809078;29;20414;-82
2022/02/08 20:37:59;;;;;;;25.15;5.22;;;;;;;;;;4811793;29;20094;-82
2022/02/08 20:40:25;;;;;;;21.40;4.75;;;;;;;;;;4803153;29;20465;-82
2022/02/08 20:42:56;;;;;;;23.85;5.38;;;;;;;;;;4814583;29;20054;-80
2022/02/08 20:45:22;;;;;;;21.90;5.40;;;;;;;;;;4825011;29;20055;-82
2022/02/08 20:47:48;;;;;;;22.73;4.45;;;;;;;;;;4814171;29;20074;-82
2022/02/08 20:50:18;;;;;;;25.02;4.50;;;;;;;;;;4797749;29;20046;-79
2022/02/08 20:52:59;;;;;;;24.98;4.15;;;;;;;;;;4810664;29;20529;-83
2022/02/08 20:55:37;;;;;;;21.23;5.63;;;;;;;;;;4789482;29;20058;-79
2022/02/08 20:58:13;;;;;;;17.88;3.63;;;;;;;;;;4803393;29;20058;-81
2022/02/08 21:00:39;;;;;;;23.15;4.15;;;;;;;;;;4788106;29;20042;-80
2022/02/08 21:06:33;;;;;;;21.80;3.83;;;;;;;;;;4802401;29;20081;-85
2022/02/08 21:08:34;;;;;;;17.00;3.42;;;;;;;;;;4791255;29;20478;-82
2022/02/08 21:11:03;;;;;;;14.65;3.50;;;;;;;;;;4806847;29;20169;-83
2022/02/08 21:16:12;;;;;;;21.48;4.50;;;;;;;;;;4803675;29;20058;-83
2022/02/08 21:18:38;;;;;;;17.20;4.50;;;;;;;;;;4802184;29;20526;-83
2022/02/08 21:21:06;;;;;;;19.17;4.05;;;;;;;;;;4789351;29;20058;-84
2022/02/08 21:23:33;;;;;;;21.90;4.15;;;;;;;;;;4807964;29;20172;-86
2022/02/08 21:26:01;;;;;;;16.38;3.70;;;;;;;;;;4823428;29;20049;-84
2022/02/08 21:49:50;;;;;;;19.15;4.05;;;;;;;;;;4815173;29;20050;-83
2022/02/08 21:54:42;;;;;;;21.88;4.43;;;;;;;;;;4823315;29;20058;-82
2022/02/08 21:57:11;;;;;;;19.15;5.57;;;;;;;;;;4814059;29;20046;-80
2022/02/08 21:59:39;;;;;;;17.73;4.97;;;;;;;;;;4826443;29;20513;-83
2022/02/08 22:02:05;;;;;;;23.13;5.30;;;;;;;;;;4820843;29;20057;-81
2022/02/08 22:04:31;;;;;;;12.63;5.20;;;;;;;;;;4820987;29;20057;-82
2022/02/08 22:06:57;;;;;;;27.73;5.85;;;;;;;;;;4821137;29;20050;-85
2022/02/08 22:09:28;;;;;;;12.68;4.65;;;;;;;;;;4820776;29;20081;-83
2022/02/08 22:20:43;;;;;;;15.52;5.40;;;;;;;;;;4819444;29;20061;-85
2022/02/08 22:23:13;;;;;;;18.88;6.00;;;;;;;;;;4820831;29;20169;-87
2022/02/08 22:25:58;;;;;;;17.50;6.07;;;;;;;;;;4805041;29;20132;-85
2022/02/08 22:28:41;;;;;;;17.63;5.78;;;;;;;;;;4810463;29;20045;-85
2022/02/08 22:31:14;;;;;;;17.63;5.90;;;;;;;;;;4791262;29;20065;-87
2022/02/08 22:33:47;;;;;;;14.68;6.00;;;;;;;;;;4827032;29;20502;-84
2022/02/08 22:36:21;;;;;;;19.75;6.53;;;;;;;;;;4832039;29;20081;-84
2022/02/08 22:38:56;;;;;;;16.35;6.40;;;;;;;;;;4835411;29;20050;-85
2022/02/08 22:41:27;;;;;;;13.10;5.80;;;;;;;;;;4807374;29;20197;-85
2022/02/08 22:44:01;;;;;;;17.17;5.70;;;;;;;;;;4821742;29;20092;-84
2022/02/08 22:46:28;;;;;;;15.23;5.45;;;;;;;;;;4820355;29;20099;-84
2022/02/08 22:48:54;;;;;;;16.90;5.40;;;;;;;;;;4823279;29;20068;-84
2022/02/08 22:51:20;;;;;;;20.08;5.95;;;;;;;;;;4818312;29;20114;-85
2022/02/08 22:53:46;;;;;;;19.02;5.75;;;;;;;;;;4818344;29;20624;-83
2022/02/08 22:56:13;;;;;;;12.05;4.75;;;;;;;;;;4819193;29;20062;-85
2022/02/08 22:58:39;;;;;;;22.52;5.55;;;;;;;;;;4822739;29;20106;-84
2022/02/08 23:01:06;;;;;;;16.33;4.85;;;;;;;;;;4820916;29;20058;-84
2022/02/08 23:03:32;;;;;;;21.30;6.40;;;;;;;;;;4837599;29;20470;-81
2022/02/08 23:05:58;;;;;;;16.30;5.20;;;;;;;;;;4821356;29;20076;-82
2022/02/08 23:08:24;;;;;;;19.30;4.82;;;;;;;;;;4820574;29;20050;-82